CheckWX is a tool to help pilots better visualize weather data.  It is not intended as a substitute for an official pre-flight weather briefing.

02:23:40 UTC

NVVV TAF
Port Vila Bauerfield Airport
Port Vila, Vanuatu
TAF NVVV 222220Z 2300/2324 VRB02KT 9999 SCT020 PROB30 INTER 2300/2306 9000 -SHRA BKN018

Apr-23@
00:00 UTC

Apr-23 @ 00:00 UTC

Apr-24@
00:00 UTC

Apr-24 @ 00:00 UTC

TAF NVVV 222220Z 2300/2324 VRB02KT 9999 SCT020
Wind
  • Variable at 2 KTS
Cloud Levels
  • Scattered at 2,000' AGL

Apr-23@
00:00 UTC

Apr-23 @ 00:00 UTC

Apr-23@
06:00 UTC

Apr-23 @ 06:00 UTC

PROB30 INTER 2300/2306 9000 -SHRA BKN018

Temporary - 30% Likelihood

Temporary - 30% Likelihood during this time.

Conditions
Light Rain
Cloud Levels
  • Broken at 1,800' AGL